sensor_id;sensor_type;location;lat;lon;timestamp;P1;durP1;ratioP1;P2;durP2;ratioP2
79338;SDS011;68809;41.712;44.768;2023-04-06T00:02:22;8.77;;;3.95;;
79338;SDS011;68809;41.712;44.768;2023-04-06T00:04:48;8.52;;;4.10;;
79338;SDS011;68809;41.712;44.768;2023-04-06T00:07:14;6.47;;;3.90;;
79338;SDS011;68809;41.712;44.768;2023-04-06T00:09:40;11.20;;;4.18;;
79338;SDS011;68809;41.712;44.768;2023-04-06T00:12:07;12.87;;;4.03;;
79338;SDS011;68809;41.712;44.768;2023-04-06T00:14:33;8.52;;;3.90;;
79338;SDS011;68809;41.712;44.768;2023-04-06T00:16:59;9.40;;;3.88;;
79338;SDS011;68809;41.712;44.768;2023-04-06T00:19:25;10.57;;;4.13;;
79338;SDS011;68809;41.712;44.768;2023-04-06T00:21:51;10.32;;;3.70;;
79338;SDS011;68809;41.712;44.768;2023-04-06T00:24:18;9.77;;;3.60;;
79338;SDS011;68809;41.712;44.768;2023-04-06T00:26:44;9.15;;;4.22;;
79338;SDS011;68809;41.712;44.768;2023-04-06T00:29:10;6.80;;;4.07;;
79338;SDS011;68809;41.712;44.768;2023-04-06T00:31:36;8.80;;;4.20;;
79338;SDS011;68809;41.712;44.768;2023-04-06T00:34:03;7.88;;;3.90;;
79338;SDS011;68809;41.712;44.768;2023-04-06T00:36:29;9.00;;;3.90;;
79338;SDS011;68809;41.712;44.768;2023-04-06T00:38:56;11.60;;;4.30;;
79338;SDS011;68809;41.712;44.768;2023-04-06T00:41:22;8.80;;;4.10;;
79338;SDS011;68809;41.712;44.768;2023-04-06T00:43:48;7.57;;;3.72;;
79338;SDS011;68809;41.712;44.768;2023-04-06T00:46:14;11.23;;;4.10;;
79338;SDS011;68809;41.712;44.768;2023-04-06T00:48:41;8.27;;;3.70;;
79338;SDS011;68809;41.712;44.768;2023-04-06T00:51:07;7.70;;;3.90;;
79338;SDS011;68809;41.712;44.768;2023-04-06T00:53:33;7.63;;;3.90;;
79338;SDS011;68809;41.712;44.768;2023-04-06T00:56:01;8.90;;;3.90;;
79338;SDS011;68809;41.712;44.768;2023-04-06T00:58:33;8.65;;;4.05;;
79338;SDS011;68809;41.712;44.768;2023-04-06T01:01:05;9.23;;;4.23;;
79338;SDS011;68809;41.712;44.768;2023-04-06T01:03:33;9.18;;;4.10;;
79338;SDS011;68809;41.712;44.768;2023-04-06T01:05:59;8.73;;;4.22;;
79338;SDS011;68809;41.712;44.768;2023-04-06T01:08:33;8.55;;;4.20;;
79338;SDS011;68809;41.712;44.768;2023-04-06T01:11:12;8.43;;;4.00;;
79338;SDS011;68809;41.712;44.768;2023-04-06T01:13:38;9.50;;;4.20;;
79338;SDS011;68809;41.712;44.768;2023-04-06T01:16:08;10.20;;;4.20;;
79338;SDS011;68809;41.712;44.768;2023-04-06T01:18:55;10.25;;;4.30;;
79338;SDS011;68809;41.712;44.768;2023-04-06T01:21:28;8.60;;;4.30;;
79338;SDS011;68809;41.712;44.768;2023-04-06T01:24:21;8.18;;;3.90;;
79338;SDS011;68809;41.712;44.768;2023-04-06T01:27:03;7.00;;;4.10;;
79338;SDS011;68809;41.712;44.768;2023-04-06T01:29:52;8.70;;;3.88;;
79338;SDS011;68809;41.712;44.768;2023-04-06T01:32:41;9.35;;;4.00;;
79338;SDS011;68809;41.712;44.768;2023-04-06T01:35:13;9.73;;;4.30;;
79338;SDS011;68809;41.712;44.768;2023-04-06T01:37:47;9.82;;;3.78;;
79338;SDS011;68809;41.712;44.768;2023-04-06T01:40:21;9.90;;;4.00;;
79338;SDS011;68809;41.712;44.768;2023-04-06T01:42:50;8.45;;;4.00;;
79338;SDS011;68809;41.712;44.768;2023-04-06T01:45:25;9.75;;;4.57;;
79338;SDS011;68809;41.712;44.768;2023-04-06T01:47:55;7.65;;;3.70;;
79338;SDS011;68809;41.712;44.768;2023-04-06T01:50:25;11.00;;;4.47;;
79338;SDS011;68809;41.712;44.768;2023-04-06T01:52:51;11.03;;;4.13;;
79338;SDS011;68809;41.712;44.768;2023-04-06T01:55:18;8.30;;;3.90;;
79338;SDS011;68809;41.712;44.768;2023-04-06T01:58:03;6.38;;;3.63;;
79338;SDS011;68809;41.712;44.768;2023-04-06T02:00:34;8.23;;;4.55;;
79338;SDS011;68809;41.712;44.768;2023-04-06T02:03:00;8.27;;;3.88;;
79338;SDS011;68809;41.712;44.768;2023-04-06T02:05:29;10.73;;;4.07;;
79338;SDS011;68809;41.712;44.768;2023-04-06T02:07:57;6.93;;;3.80;;
79338;SDS011;68809;41.712;44.768;2023-04-06T02:10:31;9.13;;;4.00;;
79338;SDS011;68809;41.712;44.768;2023-04-06T02:13:02;7.82;;;3.80;;
79338;SDS011;68809;41.712;44.768;2023-04-06T02:15:28;17.33;;;8.82;;
79338;SDS011;68809;41.712;44.768;2023-04-06T02:17:54;11.00;;;5.63;;
79338;SDS011;68809;41.712;44.768;2023-04-06T02:20:21;10.02;;;4.40;;
79338;SDS011;68809;41.712;44.768;2023-04-06T02:22:47;8.25;;;3.90;;
79338;SDS011;68809;41.712;44.768;2023-04-06T02:25:14;8.30;;;3.95;;
79338;SDS011;68809;41.712;44.768;2023-04-06T02:27:40;8.20;;;3.78;;
79338;SDS011;68809;41.712;44.768;2023-04-06T02:30:06;6.00;;;3.40;;
79338;SDS011;68809;41.712;44.768;2023-04-06T02:32:33;8.95;;;3.88;;
79338;SDS011;68809;41.712;44.768;2023-04-06T02:35:00;7.78;;;4.25;;
79338;SDS011;68809;41.712;44.768;2023-04-06T02:37:26;8.60;;;4.03;;
79338;SDS011;68809;41.712;44.768;2023-04-06T02:39:52;10.23;;;4.53;;
79338;SDS011;68809;41.712;44.768;2023-04-06T02:42:19;10.43;;;4.67;;
79338;SDS011;68809;41.712;44.768;2023-04-06T02:44:48;11.13;;;4.30;;
79338;SDS011;68809;41.712;44.768;2023-04-06T02:47:16;10.23;;;4.30;;
79338;SDS011;68809;41.712;44.768;2023-04-06T02:49:46;11.15;;;4.18;;
79338;SDS011;68809;41.712;44.768;2023-04-06T02:52:13;8.85;;;4.30;;
79338;SDS011;68809;41.712;44.768;2023-04-06T02:54:40;8.43;;;4.30;;
79338;SDS011;68809;41.712;44.768;2023-04-06T02:57:07;12.98;;;5.05;;
79338;SDS011;68809;41.712;44.768;2023-04-06T02:59:40;13.05;;;4.53;;
79338;SDS011;68809;41.712;44.768;2023-04-06T03:02:12;8.75;;;4.13;;
79338;SDS011;68809;41.712;44.768;2023-04-06T03:04:39;10.13;;;4.70;;
79338;SDS011;68809;41.712;44.768;2023-04-06T03:07:15;9.10;;;4.80;;
79338;SDS011;68809;41.712;44.768;2023-04-06T03:09:42;10.38;;;4.40;;
79338;SDS011;68809;41.712;44.768;2023-04-06T03:12:08;14.48;;;4.72;;
79338;SDS011;68809;41.712;44.768;2023-04-06T03:14:45;8.68;;;3.78;;
79338;SDS011;68809;41.712;44.768;2023-04-06T03:17:12;8.50;;;4.60;;
79338;SDS011;68809;41.712;44.768;2023-04-06T03:19:38;9.03;;;3.90;;
79338;SDS011;68809;41.712;44.768;2023-04-06T03:22:05;8.32;;;4.20;;
79338;SDS011;68809;41.712;44.768;2023-04-06T03:24:31;9.90;;;4.03;;
79338;SDS011;68809;41.712;44.768;2023-04-06T03:26:57;8.90;;;3.70;;
79338;SDS011;68809;41.712;44.768;2023-04-06T03:29:24;9.95;;;4.57;;
79338;SDS011;68809;41.712;44.768;2023-04-06T03:31:50;9.40;;;4.50;;
79338;SDS011;68809;41.712;44.768;2023-04-06T03:34:25;8.27;;;3.70;;
79338;SDS011;68809;41.712;44.768;2023-04-06T03:36:51;11.23;;;3.90;;
79338;SDS011;68809;41.712;44.768;2023-04-06T03:39:18;10.57;;;4.18;;
79338;SDS011;68809;41.712;44.768;2023-04-06T03:41:44;8.15;;;3.83;;
79338;SDS011;68809;41.712;44.768;2023-04-06T03:44:37;10.10;;;4.20;;
79338;SDS011;68809;41.712;44.768;2023-04-06T03:47:03;8.98;;;4.40;;
79338;SDS011;68809;41.712;44.768;2023-04-06T03:49:29;13.77;;;5.10;;
79338;SDS011;68809;41.712;44.768;2023-04-06T03:51:57;10.80;;;4.20;;
79338;SDS011;68809;41.712;44.768;2023-04-06T03:54:23;10.05;;;4.47;;
79338;SDS011;68809;41.712;44.768;2023-04-06T03:56:49;12.37;;;4.60;;
79338;SDS011;68809;41.712;44.768;2023-04-06T03:59:15;8.38;;;4.32;;
79338;SDS011;68809;41.712;44.768;2023-04-06T04:01:42;8.65;;;4.30;;
79338;SDS011;68809;41.712;44.768;2023-04-06T04:04:08;8.85;;;4.57;;
79338;SDS011;68809;41.712;44.768;2023-04-06T04:06:34;8.20;;;4.57;;
79338;SDS011;68809;41.712;44.768;2023-04-06T04:09:02;13.73;;;4.50;;
79338;SDS011;68809;41.712;44.768;2023-04-06T04:11:28;9.02;;;4.60;;
79338;SDS011;68809;41.712;44.768;2023-04-06T04:13:57;8.35;;;4.53;;
79338;SDS011;68809;41.712;44.768;2023-04-06T04:16:23;9.88;;;4.45;;
79338;SDS011;68809;41.712;44.768;2023-04-06T04:18:49;13.20;;;4.57;;
79338;SDS011;68809;41.712;44.768;2023-04-06T04:21:16;10.77;;;4.60;;
79338;SDS011;68809;41.712;44.768;2023-04-06T04:23:42;10.73;;;4.85;;
79338;SDS011;68809;41.712;44.768;2023-04-06T04:26:08;9.35;;;5.20;;
79338;SDS011;68809;41.712;44.768;2023-04-06T04:28:35;9.85;;;4.95;;
79338;SDS011;68809;41.712;44.768;2023-04-06T04:31:01;10.77;;;5.38;;
79338;SDS011;68809;41.712;44.768;2023-04-06T04:33:31;14.97;;;5.57;;
79338;SDS011;68809;41.712;44.768;2023-04-06T04:35:58;12.07;;;5.18;;
79338;SDS011;68809;41.712;44.768;2023-04-06T04:38:29;12.40;;;5.80;;
79338;SDS011;68809;41.712;44.768;2023-04-06T04:40:56;11.75;;;5.18;;
79338;SDS011;68809;41.712;44.768;2023-04-06T04:43:23;9.23;;;5.03;;
79338;SDS011;68809;41.712;44.768;2023-04-06T04:45:49;11.03;;;5.63;;
79338;SDS011;68809;41.712;44.768;2023-04-06T04:48:24;11.68;;;5.45;;
79338;SDS011;68809;41.712;44.768;2023-04-06T04:50:56;12.05;;;5.80;;
79338;SDS011;68809;41.712;44.768;2023-04-06T04:53:26;17.52;;;6.20;;
79338;SDS011;68809;41.712;44.768;2023-04-06T04:55:59;9.07;;;5.60;;
79338;SDS011;68809;41.712;44.768;2023-04-06T04:58:26;10.13;;;5.10;;
79338;SDS011;68809;41.712;44.768;2023-04-06T05:00:56;12.90;;;5.18;;
79338;SDS011;68809;41.712;44.768;2023-04-06T05:03:23;9.90;;;4.60;;
79338;SDS011;68809;41.712;44.768;2023-04-06T05:06:00;12.35;;;4.50;;
79338;SDS011;68809;41.712;44.768;2023-04-06T05:08:30;12.07;;;4.45;;
79338;SDS011;68809;41.712;44.768;2023-04-06T05:10:57;9.97;;;3.97;;
79338;SDS011;68809;41.712;44.768;2023-04-06T05:13:24;15.40;;;5.38;;
79338;SDS011;68809;41.712;44.768;2023-04-06T05:15:52;12.77;;;5.13;;
79338;SDS011;68809;41.712;44.768;2023-04-06T05:18:23;9.98;;;4.25;;
79338;SDS011;68809;41.712;44.768;2023-04-06T05:20:51;10.90;;;4.53;;
79338;SDS011;68809;41.712;44.768;2023-04-06T05:23:25;13.03;;;4.60;;
79338;SDS011;68809;41.712;44.768;2023-04-06T05:25:52;9.15;;;4.15;;
79338;SDS011;68809;41.712;44.768;2023-04-06T05:28:24;9.25;;;3.60;;
79338;SDS011;68809;41.712;44.768;2023-04-06T05:30:56;7.13;;;2.38;;
79338;SDS011;68809;41.712;44.768;2023-04-06T05:33:25;8.10;;;3.40;;
79338;SDS011;68809;41.712;44.768;2023-04-06T05:36:03;6.20;;;1.80;;
79338;SDS011;68809;41.712;44.768;2023-04-06T05:38:31;4.20;;;2.25;;
79338;SDS011;68809;41.712;44.768;2023-04-06T05:41:05;6.18;;;2.70;;
79338;SDS011;68809;41.712;44.768;2023-04-06T05:43:33;7.25;;;2.60;;
79338;SDS011;68809;41.712;44.768;2023-04-06T05:46:00;8.75;;;2.30;;
79338;SDS011;68809;41.712;44.768;2023-04-06T05:48:27;7.57;;;2.30;;
79338;SDS011;68809;41.712;44.768;2023-04-06T05:50:54;6.95;;;2.40;;
79338;SDS011;68809;41.712;44.768;2023-04-06T05:53:27;6.13;;;2.80;;
79338;SDS011;68809;41.712;44.768;2023-04-06T05:56:00;5.88;;;2.53;;
79338;SDS011;68809;41.712;44.768;2023-04-06T05:58:27;6.25;;;2.10;;
79338;SDS011;68809;41.712;44.768;2023-04-06T06:00:58;5.27;;;2.40;;
79338;SDS011;68809;41.712;44.768;2023-04-06T06:03:26;6.57;;;2.15;;
79338;SDS011;68809;41.712;44.768;2023-04-06T06:06:02;4.43;;;1.83;;
79338;SDS011;68809;41.712;44.768;2023-04-06T06:08:37;4.80;;;2.10;;
79338;SDS011;68809;41.712;44.768;2023-04-06T06:11:10;6.18;;;2.10;;
79338;SDS011;68809;41.712;44.768;2023-04-06T06:13:36;5.67;;;2.10;;
79338;SDS011;68809;41.712;44.768;2023-04-06T06:16:02;7.07;;;1.63;;
79338;SDS011;68809;41.712;44.768;2023-04-06T06:18:33;7.45;;;2.65;;
79338;SDS011;68809;41.712;44.768;2023-04-06T06:20:59;7.15;;;2.50;;
79338;SDS011;68809;41.712;44.768;2023-04-06T06:23:26;6.50;;;1.80;;
79338;SDS011;68809;41.712;44.768;2023-04-06T06:25:53;4.20;;;1.70;;
79338;SDS011;68809;41.712;44.768;2023-04-06T06:28:22;4.88;;;1.77;;
79338;SDS011;68809;41.712;44.768;2023-04-06T06:30:50;6.90;;;2.67;;
79338;SDS011;68809;41.712;44.768;2023-04-06T06:33:20;6.82;;;2.60;;
79338;SDS011;68809;41.712;44.768;2023-04-06T06:35:48;7.93;;;2.47;;
79338;SDS011;68809;41.712;44.768;2023-04-06T06:38:16;5.87;;;1.80;;
79338;SDS011;68809;41.712;44.768;2023-04-06T06:40:42;6.22;;;1.90;;
79338;SDS011;68809;41.712;44.768;2023-04-06T06:43:09;8.23;;;2.50;;
79338;SDS011;68809;41.712;44.768;2023-04-06T06:45:55;5.20;;;2.10;;
79338;SDS011;68809;41.712;44.768;2023-04-06T06:48:22;5.50;;;2.20;;
79338;SDS011;68809;41.712;44.768;2023-04-06T06:50:48;4.80;;;1.80;;
79338;SDS011;68809;41.712;44.768;2023-04-06T06:53:14;4.72;;;2.08;;
79338;SDS011;68809;41.712;44.768;2023-04-06T06:55:40;5.32;;;2.20;;
79338;SDS011;68809;41.712;44.768;2023-04-06T06:58:08;7.20;;;1.90;;
79338;SDS011;68809;41.712;44.768;2023-04-06T07:00:34;7.30;;;2.50;;
79338;SDS011;68809;41.712;44.768;2023-04-06T07:03:00;5.47;;;2.40;;
79338;SDS011;68809;41.712;44.768;2023-04-06T07:05:27;8.52;;;2.90;;
79338;SDS011;68809;41.712;44.768;2023-04-06T07:07:54;6.28;;;2.50;;
79338;SDS011;68809;41.712;44.768;2023-04-06T07:10:20;5.75;;;2.50;;
79338;SDS011;68809;41.712;44.768;2023-04-06T07:12:47;8.13;;;2.35;;
79338;SDS011;68809;41.712;44.768;2023-04-06T07:15:14;5.33;;;1.67;;
79338;SDS011;68809;41.712;44.768;2023-04-06T07:17:40;4.15;;;1.50;;
79338;SDS011;68809;41.712;44.768;2023-04-06T07:20:11;7.20;;;2.53;;
79338;SDS011;68809;41.712;44.768;2023-04-06T07:22:38;5.47;;;2.42;;
79338;SDS011;68809;41.712;44.768;2023-04-06T07:25:05;8.25;;;2.67;;
79338;SDS011;68809;41.712;44.768;2023-04-06T07:27:31;7.97;;;2.90;;
79338;SDS011;68809;41.712;44.768;2023-04-06T07:29:59;6.05;;;2.25;;
79338;SDS011;68809;41.712;44.768;2023-04-06T07:32:25;5.22;;;1.92;;
79338;SDS011;68809;41.712;44.768;2023-04-06T07:34:52;5.90;;;1.77;;
79338;SDS011;68809;41.712;44.768;2023-04-06T07:37:18;6.80;;;2.50;;
79338;SDS011;68809;41.712;44.768;2023-04-06T07:39:44;6.63;;;2.17;;
79338;SDS011;68809;41.712;44.768;2023-04-06T07:42:11;6.82;;;2.20;;
79338;SDS011;68809;41.712;44.768;2023-04-06T07:44:37;4.35;;;1.92;;
79338;SDS011;68809;41.712;44.768;2023-04-06T07:47:04;6.38;;;2.35;;
79338;SDS011;68809;41.712;44.768;2023-04-06T07:49:30;5.35;;;2.50;;
79338;SDS011;68809;41.712;44.768;2023-04-06T07:51:59;5.80;;;2.47;;
79338;SDS011;68809;41.712;44.768;2023-04-06T07:54:26;6.75;;;2.70;;
79338;SDS011;68809;41.712;44.768;2023-04-06T07:56:52;7.82;;;2.65;;
79338;SDS011;68809;41.712;44.768;2023-04-06T07:59:19;5.95;;;2.25;;
79338;SDS011;68809;41.712;44.768;2023-04-06T08:01:45;6.25;;;2.67;;
79338;SDS011;68809;41.712;44.768;2023-04-06T08:04:11;13.07;;;3.00;;
79338;SDS011;68809;41.712;44.768;2023-04-06T08:06:37;6.90;;;2.50;;
79338;SDS011;68809;41.712;44.768;2023-04-06T08:09:04;5.75;;;2.70;;
79338;SDS011;68809;41.712;44.768;2023-04-06T08:11:30;6.57;;;2.50;;
79338;SDS011;68809;41.712;44.768;2023-04-06T08:13:56;4.15;;;2.13;;
79338;SDS011;68809;41.712;44.768;2023-04-06T08:16:23;7.17;;;2.60;;
79338;SDS011;68809;41.712;44.768;2023-04-06T08:18:49;5.82;;;2.80;;
79338;SDS011;68809;41.712;44.768;2023-04-06T08:21:15;8.68;;;2.30;;
79338;SDS011;68809;41.712;44.768;2023-04-06T08:23:42;6.97;;;2.63;;
79338;SDS011;68809;41.712;44.768;2023-04-06T08:26:08;2.95;;;1.45;;
79338;SDS011;68809;41.712;44.768;2023-04-06T08:28:35;7.97;;;2.70;;
79338;SDS011;68809;41.712;44.768;2023-04-06T08:31:04;5.28;;;2.40;;
79338;SDS011;68809;41.712;44.768;2023-04-06T08:33:31;14.05;;;3.45;;
79338;SDS011;68809;41.712;44.768;2023-04-06T08:36:11;5.70;;;2.45;;
79338;SDS011;68809;41.712;44.768;2023-04-06T08:38:38;7.18;;;2.08;;
79338;SDS011;68809;41.712;44.768;2023-04-06T08:41:11;5.47;;;2.50;;
79338;SDS011;68809;41.712;44.768;2023-04-06T08:43:42;6.07;;;2.90;;
79338;SDS011;68809;41.712;44.768;2023-04-06T08:46:10;6.72;;;2.67;;
79338;SDS011;68809;41.712;44.768;2023-04-06T08:48:38;7.03;;;2.55;;
79338;SDS011;68809;41.712;44.768;2023-04-06T08:51:05;6.35;;;2.45;;
79338;SDS011;68809;41.712;44.768;2023-04-06T08:53:31;5.37;;;2.37;;
79338;SDS011;68809;41.712;44.768;2023-04-06T08:55:58;6.15;;;2.83;;
79338;SDS011;68809;41.712;44.768;2023-04-06T08:58:25;7.25;;;2.90;;
79338;SDS011;68809;41.712;44.768;2023-04-06T09:00:54;5.45;;;1.88;;
79338;SDS011;68809;41.712;44.768;2023-04-06T09:03:20;4.60;;;1.70;;
79338;SDS011;68809;41.712;44.768;2023-04-06T09:05:47;6.93;;;2.80;;
79338;SDS011;68809;41.712;44.768;2023-04-06T09:08:13;6.65;;;2.40;;
79338;SDS011;68809;41.712;44.768;2023-04-06T09:10:40;9.93;;;2.80;;
79338;SDS011;68809;41.712;44.768;2023-04-06T09:13:07;5.93;;;2.67;;
79338;SDS011;68809;41.712;44.768;2023-04-06T09:15:33;6.45;;;2.50;;
79338;SDS011;68809;41.712;44.768;2023-04-06T09:18:00;5.63;;;2.80;;
79338;SDS011;68809;41.712;44.768;2023-04-06T09:20:27;6.43;;;2.30;;
79338;SDS011;68809;41.712;44.768;2023-04-06T09:22:54;10.82;;;2.83;;
79338;SDS011;68809;41.712;44.768;2023-04-06T09:25:21;9.13;;;2.80;;
79338;SDS011;68809;41.712;44.768;2023-04-06T09:27:57;6.78;;;2.60;;
79338;SDS011;68809;41.712;44.768;2023-04-06T09:30:25;3.70;;;1.63;;
79338;SDS011;68809;41.712;44.768;2023-04-06T09:32:53;5.55;;;2.28;;
79338;SDS011;68809;41.712;44.768;2023-04-06T09:35:21;7.53;;;2.65;;
79338;SDS011;68809;41.712;44.768;2023-04-06T09:37:48;7.75;;;2.25;;
79338;SDS011;68809;41.712;44.768;2023-04-06T09:40:15;6.95;;;2.70;;
79338;SDS011;68809;41.712;44.768;2023-04-06T09:42:45;8.17;;;2.80;;
79338;SDS011;68809;41.712;44.768;2023-04-06T09:45:12;6.45;;;2.80;;
79338;SDS011;68809;41.712;44.768;2023-04-06T09:47:39;8.65;;;2.90;;
79338;SDS011;68809;41.712;44.768;2023-04-06T09:50:07;8.25;;;2.70;;
79338;SDS011;68809;41.712;44.768;2023-04-06T09:52:48;5.63;;;2.30;;
79338;SDS011;68809;41.712;44.768;2023-04-06T09:55:30;6.93;;;2.70;;
79338;SDS011;68809;41.712;44.768;2023-04-06T09:58:06;10.43;;;2.65;;
79338;SDS011;68809;41.712;44.768;2023-04-06T10:00:43;10.23;;;2.70;;
79338;SDS011;68809;41.712;44.768;2023-04-06T10:06:03;8.85;;;2.80;;
79338;SDS011;68809;41.712;44.768;2023-04-06T10:08:32;9.83;;;3.03;;
79338;SDS011;68809;41.712;44.768;2023-04-06T10:10:59;5.72;;;2.15;;
79338;SDS011;68809;41.712;44.768;2023-04-06T10:13:26;6.40;;;2.70;;
79338;SDS011;68809;41.712;44.768;2023-04-06T10:15:52;7.18;;;2.90;;
79338;SDS011;68809;41.712;44.768;2023-04-06T10:18:20;7.15;;;2.00;;
79338;SDS011;68809;41.712;44.768;2023-04-06T10:20:48;8.73;;;2.50;;
79338;SDS011;68809;41.712;44.768;2023-04-06T10:23:26;10.27;;;2.80;;
79338;SDS011;68809;41.712;44.768;2023-04-06T10:25:58;6.38;;;2.88;;
79338;SDS011;68809;41.712;44.768;2023-04-06T10:28:25;6.55;;;2.67;;
79338;SDS011;68809;41.712;44.768;2023-04-06T10:30:56;9.05;;;2.85;;
79338;SDS011;68809;41.712;44.768;2023-04-06T10:33:24;6.23;;;2.40;;
79338;SDS011;68809;41.712;44.768;2023-04-06T10:35:50;4.75;;;2.03;;
79338;SDS011;68809;41.712;44.768;2023-04-06T10:38:17;9.57;;;3.13;;
79338;SDS011;68809;41.712;44.768;2023-04-06T10:40:47;8.60;;;3.10;;
79338;SDS011;68809;41.712;44.768;2023-04-06T10:43:21;4.57;;;2.40;;
79338;SDS011;68809;41.712;44.768;2023-04-06T10:45:57;7.47;;;2.43;;
79338;SDS011;68809;41.712;44.768;2023-04-06T10:48:25;11.55;;;2.90;;
79338;SDS011;68809;41.712;44.768;2023-04-06T10:51:16;8.30;;;3.10;;
79338;SDS011;68809;41.712;44.768;2023-04-06T10:53:44;6.93;;;3.30;;
79338;SDS011;68809;41.712;44.768;2023-04-06T10:56:13;7.70;;;2.80;;
79338;SDS011;68809;41.712;44.768;2023-04-06T10:58:44;5.67;;;2.50;;
79338;SDS011;68809;41.712;44.768;2023-04-06T11:01:18;6.43;;;2.90;;
79338;SDS011;68809;41.712;44.768;2023-04-06T11:03:49;6.32;;;2.60;;
79338;SDS011;68809;41.712;44.768;2023-04-06T11:06:23;7.85;;;2.80;;
79338;SDS011;68809;41.712;44.768;2023-04-06T11:08:52;6.97;;;2.92;;
79338;SDS011;68809;41.712;44.768;2023-04-06T11:11:20;6.17;;;2.37;;
79338;SDS011;68809;41.712;44.768;2023-04-06T11:13:58;9.38;;;2.47;;
79338;SDS011;68809;41.712;44.768;2023-04-06T11:16:26;5.38;;;2.60;;
79338;SDS011;68809;41.712;44.768;2023-04-06T11:18:54;7.50;;;2.53;;
79338;SDS011;68809;41.712;44.768;2023-04-06T11:21:35;6.00;;;2.83;;
79338;SDS011;68809;41.712;44.768;2023-04-06T11:26:37;7.18;;;2.42;;
79338;SDS011;68809;41.712;44.768;2023-04-06T11:29:28;6.68;;;2.42;;
79338;SDS011;68809;41.712;44.768;2023-04-06T11:34:25;7.70;;;2.35;;
79338;SDS011;68809;41.712;44.768;2023-04-06T11:36:55;5.90;;;2.47;;
79338;SDS011;68809;41.712;44.768;2023-04-06T11:39:27;9.77;;;2.85;;
79338;SDS011;68809;41.712;44.768;2023-04-06T11:41:54;9.85;;;3.22;;
79338;SDS011;68809;41.712;44.768;2023-04-06T11:44:39;5.68;;;2.00;;
79338;SDS011;68809;41.712;44.768;2023-04-06T11:47:07;4.75;;;1.85;;
79338;SDS011;68809;41.712;44.768;2023-04-06T11:49:36;8.50;;;2.97;;
79338;SDS011;68809;41.712;44.768;2023-04-06T11:52:13;8.10;;;2.40;;
79338;SDS011;68809;41.712;44.768;2023-04-06T11:54:50;6.22;;;2.63;;
79338;SDS011;68809;41.712;44.768;2023-04-06T11:57:20;9.60;;;2.58;;
79338;SDS011;68809;41.712;44.768;2023-04-06T11:59:51;5.93;;;2.00;;
79338;SDS011;68809;41.712;44.768;2023-04-06T12:02:17;6.20;;;2.40;;
79338;SDS011;68809;41.712;44.768;2023-04-06T12:04:44;5.75;;;2.05;;
79338;SDS011;68809;41.712;44.768;2023-04-06T12:07:10;7.53;;;2.65;;
79338;SDS011;68809;41.712;44.768;2023-04-06T12:09:36;8.10;;;2.03;;
79338;SDS011;68809;41.712;44.768;2023-04-06T12:12:03;8.57;;;2.60;;
79338;SDS011;68809;41.712;44.768;2023-04-06T12:14:29;7.67;;;2.90;;
79338;SDS011;68809;41.712;44.768;2023-04-06T12:16:56;6.55;;;3.00;;
79338;SDS011;68809;41.712;44.768;2023-04-06T12:19:23;6.07;;;2.40;;
79338;SDS011;68809;41.712;44.768;2023-04-06T12:21:51;6.45;;;2.63;;
79338;SDS011;68809;41.712;44.768;2023-04-06T12:24:19;6.60;;;2.80;;
79338;SDS011;68809;41.712;44.768;2023-04-06T12:26:45;8.17;;;2.60;;
79338;SDS011;68809;41.712;44.768;2023-04-06T12:29:12;11.63;;;3.10;;
79338;SDS011;68809;41.712;44.768;2023-04-06T12:31:38;6.50;;;1.98;;
79338;SDS011;68809;41.712;44.768;2023-04-06T12:34:06;7.10;;;2.50;;
79338;SDS011;68809;41.712;44.768;2023-04-06T12:36:32;9.27;;;2.67;;
79338;SDS011;68809;41.712;44.768;2023-04-06T12:38:59;8.30;;;2.57;;
79338;SDS011;68809;41.712;44.768;2023-04-06T12:41:28;7.05;;;2.22;;
79338;SDS011;68809;41.712;44.768;2023-04-06T12:43:55;6.85;;;2.25;;
79338;SDS011;68809;41.712;44.768;2023-04-06T12:46:23;7.43;;;2.60;;
79338;SDS011;68809;41.712;44.768;2023-04-06T12:48:49;9.35;;;2.38;;
79338;SDS011;68809;41.712;44.768;2023-04-06T12:51:19;6.17;;;2.63;;
79338;SDS011;68809;41.712;44.768;2023-04-06T12:53:45;5.88;;;2.50;;
79338;SDS011;68809;41.712;44.768;2023-04-06T12:56:12;7.57;;;2.53;;
79338;SDS011;68809;41.712;44.768;2023-04-06T12:58:40;6.55;;;2.90;;
79338;SDS011;68809;41.712;44.768;2023-04-06T13:01:07;8.98;;;3.10;;
79338;SDS011;68809;41.712;44.768;2023-04-06T13:03:33;8.13;;;2.70;;
79338;SDS011;68809;41.712;44.768;2023-04-06T13:06:00;9.48;;;2.95;;
79338;SDS011;68809;41.712;44.768;2023-04-06T13:08:27;8.80;;;2.88;;
79338;SDS011;68809;41.712;44.768;2023-04-06T13:10:53;8.00;;;3.05;;
79338;SDS011;68809;41.712;44.768;2023-04-06T13:13:26;6.13;;;2.50;;
79338;SDS011;68809;41.712;44.768;2023-04-06T13:15:59;5.00;;;2.50;;
79338;SDS011;68809;41.712;44.768;2023-04-06T13:18:27;4.28;;;2.10;;
79338;SDS011;68809;41.712;44.768;2023-04-06T13:20:54;6.97;;;2.22;;
79338;SDS011;68809;41.712;44.768;2023-04-06T13:23:22;5.28;;;2.30;;
79338;SDS011;68809;41.712;44.768;2023-04-06T13:25:57;7.53;;;2.70;;
79338;SDS011;68809;41.712;44.768;2023-04-06T13:28:31;5.97;;;2.70;;
79338;SDS011;68809;41.712;44.768;2023-04-06T13:30:59;5.97;;;2.45;;
79338;SDS011;68809;41.712;44.768;2023-04-06T13:33:26;7.00;;;2.72;;
79338;SDS011;68809;41.712;44.768;2023-04-06T13:35:52;8.18;;;2.90;;
79338;SDS011;68809;41.712;44.768;2023-04-06T13:38:19;11.55;;;4.30;;
79338;SDS011;68809;41.712;44.768;2023-04-06T13:40:45;9.00;;;3.70;;
79338;SDS011;68809;41.712;44.768;2023-04-06T13:43:11;10.63;;;4.20;;
79338;SDS011;68809;41.712;44.768;2023-04-06T13:45:38;6.63;;;2.75;;
79338;SDS011;68809;41.712;44.768;2023-04-06T13:48:04;6.72;;;2.80;;
79338;SDS011;68809;41.712;44.768;2023-04-06T13:50:31;7.38;;;3.63;;
79338;SDS011;68809;41.712;44.768;2023-04-06T13:52:58;7.13;;;3.47;;
79338;SDS011;68809;41.712;44.768;2023-04-06T13:55:24;11.35;;;3.50;;
79338;SDS011;68809;41.712;44.768;2023-04-06T13:57:50;9.15;;;3.67;;
79338;SDS011;68809;41.712;44.768;2023-04-06T14:00:17;7.38;;;3.40;;
79338;SDS011;68809;41.712;44.768;2023-04-06T14:02:43;8.23;;;3.83;;
79338;SDS011;68809;41.712;44.768;2023-04-06T14:05:09;8.13;;;3.77;;
79338;SDS011;68809;41.712;44.768;2023-04-06T14:07:36;10.88;;;3.53;;
79338;SDS011;68809;41.712;44.768;2023-04-06T14:10:03;6.03;;;2.78;;
79338;SDS011;68809;41.712;44.768;2023-04-06T14:12:30;8.43;;;3.53;;
79338;SDS011;68809;41.712;44.768;2023-04-06T14:14:57;6.13;;;3.17;;
79338;SDS011;68809;41.712;44.768;2023-04-06T14:17:23;9.17;;;4.00;;
79338;SDS011;68809;41.712;44.768;2023-04-06T14:19:50;9.85;;;3.95;;
79338;SDS011;68809;41.712;44.768;2023-04-06T14:22:17;6.95;;;3.60;;
79338;SDS011;68809;41.712;44.768;2023-04-06T14:24:43;5.05;;;2.10;;
79338;SDS011;68809;41.712;44.768;2023-04-06T14:27:09;6.45;;;2.13;;
79338;SDS011;68809;41.712;44.768;2023-04-06T14:29:42;6.57;;;3.80;;
79338;SDS011;68809;41.712;44.768;2023-04-06T14:32:08;7.15;;;3.25;;
79338;SDS011;68809;41.712;44.768;2023-04-06T14:34:38;9.15;;;3.67;;
79338;SDS011;68809;41.712;44.768;2023-04-06T14:37:05;7.40;;;3.75;;
79338;SDS011;68809;41.712;44.768;2023-04-06T14:39:31;8.38;;;3.75;;
79338;SDS011;68809;41.712;44.768;2023-04-06T14:41:58;8.27;;;3.70;;
79338;SDS011;68809;41.712;44.768;2023-04-06T14:44:25;10.77;;;3.90;;
79338;SDS011;68809;41.712;44.768;2023-04-06T14:46:51;9.65;;;4.22;;
79338;SDS011;68809;41.712;44.768;2023-04-06T14:49:17;9.07;;;4.43;;
79338;SDS011;68809;41.712;44.768;2023-04-06T14:51:45;9.85;;;4.15;;